Time;durP1;ratioP1;P1;durP2;ratioP2;P2;SDS_P1;SDS_P2;PMS_P1;PMS_P2;Temp;Humidity;BMP_temperature;BMP_pressure;BME280_temperature;BME280_humidity;BME280_pressure;Samples;Min_cycle;Max_cycle;Signal;HPM_P1;HPM_P2
2023/01/15 00:02:50;;;;;;;3.83;0.30;;;;;;;7.89;73.27;98860.75;10490406;28;20247;-84
2023/01/15 00:07:53;;;;;;;1.80;0.30;;;;;;;7.38;73.76;98860.88;10463375;28;20288;-83
2023/01/15 00:12:55;;;;;;;1.50;0.20;;;;;;;7.79;71.62;98866.69;10485188;28;20556;-82
2023/01/15 00:17:57;;;;;;;2.53;0.37;;;;;;;7.11;73.13;98890.75;10466450;28;20281;-83
2023/01/15 00:22:59;;;;;;;4.40;0.50;;;;;;;7.07;71.37;98886.16;10470022;28;20242;-82
2023/01/15 00:28:03;;;;;;;2.10;0.50;;;;;;;7.43;69.63;98885.81;10472795;28;20596;-82
2023/01/15 00:33:05;;;;;;;2.67;0.20;;;;;;;7.70;69.88;98896.59;10471993;28;20210;-83
2023/01/15 00:38:07;;;;;;;1.57;0.37;;;;;;;7.76;70.24;98881.31;10483729;28;20227;-83
2023/01/15 00:43:10;;;;;;;1.87;0.50;;;;;;;7.92;69.01;98883.56;10466611;28;20635;-83
2023/01/15 00:48:13;;;;;;;3.50;0.80;;;;;;;7.10;72.39;98900.25;10482898;28;20225;-83
2023/01/15 00:53:16;;;;;;;4.63;0.57;;;;;;;7.45;71.07;98905.84;10462905;28;20254;-81
2023/01/15 00:58:18;;;;;;;2.13;0.80;;;;;;;7.52;70.33;98883.81;10456024;28;20204;-82
2023/01/15 01:03:22;;;;;;;1.90;0.33;;;;;;;7.45;70.45;98869.56;10472963;28;20214;-83
2023/01/15 01:08:24;;;;;;;1.43;0.40;;;;;;;7.40;68.00;98864.16;10486590;28;20200;-82
2023/01/15 01:13:26;;;;;;;2.20;0.33;;;;;;;7.46;67.81;98863.63;10481038;28;20194;-83
2023/01/15 01:18:29;;;;;;;0.87;0.30;;;;;;;6.97;68.71;98848.25;10456742;28;20200;-82
2023/01/15 01:23:31;;;;;;;1.13;0.30;;;;;;;7.13;68.48;98849.41;10482843;28;20237;-83
2023/01/15 01:28:33;;;;;;;1.13;0.40;;;;;;;7.05;69.38;98836.31;10492660;28;20199;-83
2023/01/15 01:33:35;;;;;;;1.87;0.43;;;;;;;7.16;68.63;98839.56;10490568;28;20221;-83
2023/01/15 01:38:37;;;;;;;2.03;0.50;;;;;;;7.66;66.07;98878.88;10479254;28;20227;-82
2023/01/15 01:43:51;;;;;;;0.67;0.30;;;;;;;7.46;65.16;98865.63;10465668;28;20619;-82
2023/01/15 01:48:57;;;;;;;1.40;0.40;;;;;;;7.76;63.80;98872.13;10479336;28;20236;-83
2023/01/15 01:53:59;;;;;;;0.67;0.23;;;;;;;8.19;63.58;98866.41;10503568;28;20202;-81
2023/01/15 01:59:03;;;;;;;2.53;0.30;;;;;;;8.09;61.54;98863.97;10482218;28;20199;-83
2023/01/15 02:04:07;;;;;;;1.03;0.20;;;;;;;7.57;63.73;98872.50;10469987;28;20211;-82
2023/01/15 02:09:09;;;;;;;2.20;0.40;;;;;;;7.66;63.36;98876.09;10468810;28;20545;-82
2023/01/15 02:14:23;;;;;;;1.27;0.20;;;;;;;7.94;62.16;98875.69;10470763;28;20202;-82
2023/01/15 02:19:40;;;;;;;2.97;0.10;;;;;;;7.52;63.04;98867.09;10484057;28;20481;-82
2023/01/15 02:24:58;;;;;;;2.63;0.20;;;;;;;7.37;63.64;98870.38;10473257;28;20214;-83
2023/01/15 02:30:22;;;;;;;1.10;0.10;;;;;;;7.30;62.83;98858.91;10472651;28;20195;-83
2023/01/15 02:35:39;;;;;;;1.43;0.10;;;;;;;7.52;63.70;98845.59;10488220;28;20283;-83
2023/01/15 02:40:45;;;;;;;2.87;0.30;;;;;;;7.41;63.18;98854.63;10467105;28;20237;-82
2023/01/15 02:45:49;;;;;;;1.13;0.20;;;;;;;7.66;62.06;98861.31;10502290;28;20265;-82
2023/01/15 02:50:55;;;;;;;2.10;0.20;;;;;;;7.22;63.56;98859.72;10482846;28;20192;-83
2023/01/15 02:56:02;;;;;;;5.17;0.20;;;;;;;7.78;61.59;98851.09;10478956;28;20200;-82
2023/01/15 03:01:13;;;;;;;1.93;0.37;;;;;;;7.60;63.07;98824.38;10465260;28;20199;-82
2023/01/15 03:06:35;;;;;;;0.60;0.10;;;;;;;7.46;63.33;98809.84;10490502;28;20219;-83
2023/01/15 03:11:43;;;;;;;3.80;0.40;;;;;;;7.63;61.31;98839.66;10477723;28;20604;-82
2023/01/15 03:16:56;;;;;;;3.07;0.50;;;;;;;7.91;60.47;98835.28;10480831;28;20333;-82
2023/01/15 03:22:09;;;;;;;2.17;0.20;;;;;;;7.78;61.07;98839.94;10470964;28;20299;-82
2023/01/15 03:27:12;;;;;;;1.90;0.20;;;;;;;7.56;61.20;98842.97;10473996;28;20223;-83
2023/01/15 03:32:20;;;;;;;2.57;0.60;;;;;;;7.81;60.65;98833.69;10479507;28;20245;-82
2023/01/15 03:37:24;;;;;;;2.53;0.20;;;;;;;7.96;60.55;98828.72;10478411;28;20219;-82
2023/01/15 03:42:44;;;;;;;2.80;0.40;;;;;;;7.60;61.57;98843.09;10493551;28;20198;-83
2023/01/15 03:48:10;;;;;;;1.23;0.30;;;;;;;7.70;61.51;98807.31;10491636;28;20195;-83
2023/01/15 03:53:33;;;;;;;7.77;0.80;;;;;;;7.27;61.84;98804.63;10482226;28;20192;-82
2023/01/15 03:58:56;;;;;;;1.80;0.20;;;;;;;7.51;61.51;98810.47;10466861;28;20259;-83
2023/01/15 04:04:07;;;;;;;2.07;0.30;;;;;;;7.59;62.34;98811.63;10490246;28;20211;-82
2023/01/15 04:09:11;;;;;;;1.80;0.30;;;;;;;7.86;60.77;98821.50;10464585;28;20199;-83
2023/01/15 04:14:13;;;;;;;1.23;0.20;;;;;;;7.24;62.68;98835.13;10486573;28;20233;-82
2023/01/15 04:19:23;;;;;;;2.10;0.33;;;;;;;7.02;63.74;98822.19;10473404;28;20662;-83
2023/01/15 04:24:38;;;;;;;4.70;0.30;;;;;;;7.49;61.49;98825.91;10489352;28;20269;-82
2023/01/15 04:29:40;;;;;;;2.20;0.40;;;;;;;7.37;62.85;98832.16;10486760;28;20475;-82
2023/01/15 04:34:42;;;;;;;0.90;0.10;;;;;;;7.35;62.24;98828.06;10477835;28;20215;-83
2023/01/15 04:39:45;;;;;;;0.80;0.20;;;;;;;7.71;61.16;98819.28;10492762;28;20646;-82
2023/01/15 04:44:48;;;;;;;2.97;0.37;;;;;;;7.67;60.98;98829.47;10503500;28;20242;-83
2023/01/15 04:49:50;;;;;;;3.83;0.30;;;;;;;7.65;60.77;98835.38;10478693;28;20652;-82
2023/01/15 04:54:54;;;;;;;1.37;0.30;;;;;;;7.58;62.02;98837.06;10505782;28;20249;-82
2023/01/15 04:59:57;;;;;;;1.60;0.30;;;;;;;7.47;61.05;98819.81;10464007;28;20199;-82
2023/01/15 05:04:59;;;;;;;3.97;0.53;;;;;;;7.59;60.82;98828.34;10495801;28;20550;-82
2023/01/15 05:10:01;;;;;;;2.30;0.20;;;;;;;7.14;62.81;98828.75;10481292;28;20195;-81
2023/01/15 05:15:04;;;;;;;1.87;0.40;;;;;;;7.64;60.95;98830.94;10492385;28;20545;-83
2023/01/15 05:20:07;;;;;;;2.70;0.40;;;;;;;7.43;62.04;98827.22;10484520;28;20191;-83
2023/01/15 05:25:09;;;;;;;3.40;0.50;;;;;;;7.44;61.65;98826.09;10511295;28;20276;-83
2023/01/15 05:30:13;;;;;;;1.67;0.30;;;;;;;7.20;62.85;98828.59;10488785;28;20200;-83
2023/01/15 05:35:15;;;;;;;1.90;0.50;;;;;;;7.70;60.48;98835.22;10500670;28;20280;-83
2023/01/15 05:40:17;;;;;;;7.30;0.57;;;;;;;7.49;61.14;98823.09;10478751;28;20218;-83
2023/01/15 05:45:19;;;;;;;3.20;0.40;;;;;;;7.38;62.12;98822.63;10477268;28;20216;-82
2023/01/15 05:50:21;;;;;;;4.60;0.90;;;;;;;7.47;62.13;98819.81;10477301;28;20536;-82
2023/01/15 05:55:23;;;;;;;4.07;0.40;;;;;;;7.19;62.33;98829.75;10472315;28;20196;-82
2023/01/15 06:00:26;;;;;;;4.50;0.57;;;;;;;7.15;62.92;98827.59;10485666;28;20191;-82
2023/01/15 06:05:31;;;;;;;5.27;0.83;;;;;;;7.02;62.81;98834.16;10490702;28;20244;-83
2023/01/15 06:10:33;;;;;;;3.20;0.87;;;;;;;7.49;61.35;98842.63;10481544;28;20214;-82
2023/01/15 06:15:35;;;;;;;3.43;0.37;;;;;;;7.51;60.81;98843.13;10478544;28;20518;-82
2023/01/15 06:20:39;;;;;;;5.70;0.87;;;;;;;7.14;61.59;98856.63;10503542;28;20276;-82
2023/01/15 06:25:41;;;;;;;4.40;0.80;;;;;;;7.40;60.75;98848.25;10497407;28;20214;-82
2023/01/15 06:30:43;;;;;;;9.07;0.70;;;;;;;7.49;60.61;98857.41;10465138;28;20199;-82
2023/01/15 06:35:45;;;;;;;4.87;0.60;;;;;;;7.56;60.73;98865.28;10469545;28;20223;-82
2023/01/15 06:40:47;;;;;;;3.70;0.60;;;;;;;7.07;62.06;98861.88;10467370;28;20214;-82
2023/01/15 06:51:14;;;;;;;6.13;0.57;;;;;;;6.91;61.71;98866.31;10470248;28;20199;-82
2023/01/15 06:56:16;;;;;;;4.63;0.80;;;;;;;7.13;61.09;98863.34;10469633;28;20219;-83
2023/01/15 07:01:19;;;;;;;5.43;0.73;;;;;;;7.22;60.62;98863.34;10474749;28;20233;-82
2023/01/15 07:06:21;;;;;;;6.10;0.83;;;;;;;7.59;59.71;98861.84;10454274;28;20632;-82
2023/01/15 07:11:23;;;;;;;6.00;1.00;;;;;;;7.71;60.74;98842.44;10482531;28;20199;-81
2023/01/15 07:16:28;;;;;;;5.80;0.50;;;;;;;7.13;62.10;98855.00;10481908;28;20211;-82
2023/01/15 07:21:30;;;;;;;8.30;0.87;;;;;;;7.61;60.72;98859.50;10475693;28;20195;-82
2023/01/15 07:26:33;;;;;;;7.70;0.87;;;;;;;7.00;61.23;98849.56;10483677;28;20218;-84
2023/01/15 07:31:36;;;;;;;3.50;0.50;;;;;;;7.00;61.68;98844.00;10458754;28;20619;-83
2023/01/15 07:36:38;;;;;;;5.43;0.70;;;;;;;7.79;60.07;98849.94;10464505;28;20219;-83
2023/01/15 07:52:23;;;;;;;8.60;0.63;;;;;;;7.19;61.80;98877.16;10461233;28;20207;-82
2023/01/15 07:57:26;;;;;;;3.97;0.70;;;;;;;7.20;60.98;98887.16;10486054;28;20241;-82
2023/01/15 08:02:28;;;;;;;5.90;0.67;;;;;;;7.37;60.02;98903.84;10459825;28;20215;-81
2023/01/15 08:07:56;;;;;;;5.23;0.70;;;;;;;7.41;60.04;98893.69;10448239;28;20258;-81
2023/01/15 08:18:20;;;;;;;4.03;0.70;;;;;;;7.62;59.30;98911.38;10460446;28;20591;-80
2023/01/15 08:23:23;;;;;;;6.37;0.70;;;;;;;7.00;60.97;98917.31;10462484;28;20230;-81
2023/01/15 08:28:25;;;;;;;7.93;0.70;;;;;;;7.34;59.93;98919.28;10491195;28;20232;-82
2023/01/15 08:33:27;;;;;;;3.67;0.60;;;;;;;7.49;59.36;98920.75;10479948;28;20223;-82
2023/01/15 08:38:29;;;;;;;2.77;0.50;;;;;;;7.25;59.34;98924.03;10477085;28;20255;-83
2023/01/15 08:43:32;;;;;;;2.23;0.47;;;;;;;7.42;58.23;98929.63;10478555;28;20618;-82
2023/01/15 08:48:34;;;;;;;5.07;0.37;;;;;;;7.47;58.27;98939.78;10467557;28;20290;-81
2023/01/15 08:53:37;;;;;;;1.53;0.50;;;;;;;7.08;56.83;98947.16;10467210;28;20632;-81
2023/01/15 08:58:39;;;;;;;5.47;0.30;;;;;;;6.68;58.26;98946.41;10478573;28;20227;-82
2023/01/15 09:03:42;;;;;;;2.00;0.67;;;;;;;7.09;57.79;98943.22;10463405;28;20601;-81
2023/01/15 09:08:45;;;;;;;2.23;0.70;;;;;;;7.02;58.02;98942.91;10472973;28;20257;-82
2023/01/15 09:13:49;;;;;;;1.93;0.43;;;;;;;6.78;58.88;98959.25;10467049;28;20892;-82
2023/01/15 09:18:54;;;;;;;1.23;0.30;;;;;;;6.94;58.21;98952.06;10464949;28;21093;-83
2023/01/15 09:23:56;;;;;;;2.77;0.30;;;;;;;6.76;57.25;98972.69;10452319;28;20304;-81
2023/01/15 09:29:00;;;;;;;0.77;0.20;;;;;;;7.04;56.40;98957.34;10475148;28;20331;-82
2023/01/15 09:34:02;;;;;;;4.13;0.40;;;;;;;6.30;58.54;98965.56;10473891;28;20251;-82
2023/01/15 09:39:04;;;;;;;2.73;0.60;;;;;;;6.45;57.20;98973.50;10478952;28;20259;-82
2023/01/15 09:44:11;;;;;;;2.67;0.43;;;;;;;6.68;55.28;98962.31;10471055;28;20230;-81
2023/01/15 09:49:41;;;;;;;3.63;0.60;;;;;;;7.06;55.45;98966.19;10469109;28;21688;-82
2023/01/15 09:55:01;;;;;;;2.07;0.43;;;;;;;7.04;55.55;98942.56;10481396;28;20280;-83
2023/01/15 10:00:05;;;;;;;3.27;0.70;;;;;;;6.64;55.62;98947.38;10458941;28;20222;-83
2023/01/15 10:05:17;;;;;;;3.37;0.40;;;;;;;6.81;55.75;98936.31;10482223;28;20234;-82
2023/01/15 10:10:22;;;;;;;2.43;0.20;;;;;;;6.86;56.10;98961.22;10469281;28;20607;-83
2023/01/15 10:15:39;;;;;;;4.07;0.60;;;;;;;6.85;57.00;98945.66;10469599;28;20657;-83
2023/01/15 10:21:06;;;;;;;3.87;1.93;;;;;;;6.68;56.10;98987.38;10476320;28;20219;-81
2023/01/15 10:26:17;;;;;;;4.67;1.03;;;;;;;7.36;56.12;98972.78;10466209;28;20242;-83
2023/01/15 10:31:23;;;;;;;8.00;4.53;;;;;;;7.12;55.75;98958.47;10468906;28;20292;-82
2023/01/15 10:36:58;;;;;;;4.30;1.20;;;;;;;6.92;55.82;98985.03;10459501;28;20243;-81
2023/01/15 10:42:18;;;;;;;5.70;1.20;;;;;;;7.24;53.52;98972.59;10475160;28;20320;-80
2023/01/15 10:47:28;;;;;;;3.03;0.33;;;;;;;7.09;53.63;98965.53;10468571;28;20295;-82
2023/01/15 10:52:32;;;;;;;2.83;0.53;;;;;;;6.97;54.65;98961.72;10452432;28;20648;-82
2023/01/15 10:57:47;;;;;;;4.03;0.70;;;;;;;6.71;54.98;98970.00;10472679;28;20227;-82
2023/01/15 11:03:07;;;;;;;6.40;0.60;;;;;;;6.59;56.75;98964.22;10479509;28;20248;-82
2023/01/15 11:08:29;;;;;;;2.87;0.70;;;;;;;7.09;53.93;98979.47;10474822;28;20250;-81
2023/01/15 11:19:41;;;;;;;4.53;0.60;;;;;;;7.90;51.41;98984.41;10467246;28;20219;-83
2023/01/15 11:24:49;;;;;;;3.10;0.33;;;;;;;7.75;51.55;98968.97;10471595;28;20601;-83
2023/01/15 11:29:59;;;;;;;6.73;0.73;;;;;;;7.64;50.75;98970.47;10453095;28;20537;-82
2023/01/15 11:35:15;;;;;;;3.40;0.40;;;;;;;7.49;51.35;98962.59;10475613;28;20269;-83
2023/01/15 11:40:20;;;;;;;3.67;0.70;;;;;;;7.18;52.64;98967.53;10450588;28;20199;-83
2023/01/15 11:50:59;;;;;;;4.27;0.53;;;;;;;7.24;52.31;98966.19;10480595;28;20231;-84
2023/01/15 11:56:07;;;;;;;5.47;1.27;;;;;;;7.97;50.65;98956.00;10461781;28;20219;-84
2023/01/15 12:01:14;;;;;;;4.17;0.50;;;;;;;7.11;51.92;98968.81;10476733;28;20273;-83
2023/01/15 12:06:18;;;;;;;6.47;2.60;;;;;;;7.85;50.04;98960.25;10469824;28;20312;-84
2023/01/15 12:12:02;;;;;;;5.67;2.00;;;;;;;7.57;50.98;98950.63;10461437;28;20748;-83
2023/01/15 12:17:33;;;;;;;2.67;0.53;;;;;;;7.43;50.76;98963.94;10450153;28;20604;-82
2023/01/15 12:22:48;;;;;;;2.20;0.40;;;;;;;7.53;50.96;98974.75;10490581;28;20210;-83
2023/01/15 12:28:15;;;;;;;2.50;0.50;;;;;;;7.21;51.72;98972.44;10473196;28;20297;-83
2023/01/15 12:33:19;;;;;;;2.33;0.40;;;;;;;7.42;50.71;98956.72;10481045;28;20252;-82
2023/01/15 12:38:48;;;;;;;2.53;0.40;;;;;;;7.56;50.61;98959.34;10469582;28;20218;-82
2023/01/15 12:49:30;;;;;;;1.40;0.20;;;;;;;6.84;52.28;98946.78;10470941;28;20247;-82
2023/01/15 12:54:38;;;;;;;2.00;0.20;;;;;;;6.58;53.50;98943.06;10478571;28;20279;-83
2023/01/15 12:59:47;;;;;;;2.90;0.40;;;;;;;7.38;50.94;98928.63;10473258;28;20191;-82
2023/01/15 13:05:12;;;;;;;2.07;0.30;;;;;;;7.73;50.62;98918.25;10483998;28;20243;-80
2023/01/15 13:10:18;;;;;;;1.93;0.20;;;;;;;7.13;51.41;98935.84;10463477;28;20248;-81
2023/01/15 13:15:25;;;;;;;1.93;0.30;;;;;;;7.55;50.32;98938.97;10469007;28;20227;-84
2023/01/15 13:20:40;;;;;;;3.03;0.30;;;;;;;7.38;51.80;98927.81;10483068;28;20680;-84
2023/01/15 13:26:04;;;;;;;1.63;0.20;;;;;;;7.81;50.13;98931.38;10483899;28;20280;-82
2023/01/15 13:31:19;;;;;;;1.20;0.17;;;;;;;7.01;52.02;98934.84;10485139;28;20578;-82
2023/01/15 13:36:27;;;;;;;4.67;1.47;;;;;;;7.77;50.78;98947.16;10475540;28;20255;-83
2023/01/15 13:47:22;;;;;;;3.70;0.50;;;;;;;7.37;50.94;98970.81;10466349;28;20319;-82
2023/01/15 13:52:31;;;;;;;113.13;100.93;;;;;;;7.39;52.22;98962.94;10477874;28;20236;-77
2023/01/15 13:57:36;;;;;;;1.53;1.03;;;;;;;7.10;51.71;98967.16;10454234;28;20227;-83
2023/01/15 14:02:39;;;;;;;2.10;0.40;;;;;;;6.90;52.49;98953.03;10471017;28;20574;-84
2023/01/15 14:07:42;;;;;;;1.90;0.30;;;;;;;7.45;50.81;98954.09;10449128;28;20380;-84
2023/01/15 14:12:47;;;;;;;4.47;0.80;;;;;;;6.83;52.62;98967.44;10465014;28;20688;-83
2023/01/15 14:18:03;;;;;;;1.20;0.30;;;;;;;7.43;51.13;98969.50;10468397;28;20949;-81
2023/01/15 14:23:30;;;;;;;1.73;0.50;;;;;;;6.96;52.36;98988.78;10468750;28;20235;-83
2023/01/15 14:28:37;;;;;;;4.20;0.87;;;;;;;7.44;51.09;98983.13;10469158;28;20246;-81
2023/01/15 14:34:09;;;;;;;1.40;0.53;;;;;;;7.08;52.59;98986.19;10469439;28;20262;-82
2023/01/15 14:39:29;;;;;;;0.87;0.30;;;;;;;7.43;51.34;98980.66;10484048;28;20254;-82
2023/01/15 14:44:36;;;;;;;0.63;0.30;;;;;;;6.81;51.80;98981.69;10453560;28;20231;-82
2023/01/15 14:49:48;;;;;;;2.53;0.73;;;;;;;7.55;49.95;98985.59;10460664;28;20247;-82
2023/01/15 14:54:52;;;;;;;2.20;0.67;;;;;;;7.10;52.00;98989.47;10461189;28;20235;-82
2023/01/15 14:59:59;;;;;;;1.77;0.20;;;;;;;6.62;53.60;99006.19;10450540;28;20238;-81
2023/01/15 15:05:02;;;;;;;2.43;0.40;;;;;;;6.85;52.56;98995.00;10463011;28;20285;-83
2023/01/15 15:10:11;;;;;;;2.00;0.40;;;;;;;7.34;51.62;99011.31;10469881;28;20254;-84
2023/01/15 15:15:25;;;;;;;2.00;0.40;;;;;;;6.99;51.58;99027.19;10458082;28;20234;-82
2023/01/15 15:20:44;;;;;;;2.57;0.33;;;;;;;7.21;52.35;99022.63;10469959;28;20227;-82
2023/01/15 15:25:56;;;;;;;1.20;0.30;;;;;;;7.63;50.72;99023.81;10472214;28;20267;-82
2023/01/15 15:31:00;;;;;;;2.87;0.30;;;;;;;7.21;50.30;99022.63;10456126;28;20539;-81
2023/01/15 15:36:02;;;;;;;1.40;0.20;;;;;;;6.92;51.72;99026.00;10481113;28;20259;-81
2023/01/15 15:41:08;;;;;;;1.20;0.37;;;;;;;7.00;52.63;99026.03;10466176;28;20222;-81
2023/01/15 15:51:50;;;;;;;1.17;0.20;;;;;;;7.32;51.32;99010.84;10447571;28;20273;-83
2023/01/15 15:57:12;;;;;;;2.13;0.30;;;;;;;7.34;50.95;99010.50;10468597;28;20231;-83
2023/01/15 16:02:18;;;;;;;1.60;0.40;;;;;;;6.88;51.52;99020.25;10455450;28;20222;-80
2023/01/15 16:07:27;;;;;;;1.90;0.40;;;;;;;6.80;52.22;99019.09;10467657;28;20255;-83
2023/01/15 16:12:32;;;;;;;2.03;0.30;;;;;;;7.37;51.27;99027.41;10467440;28;20791;-82
2023/01/15 16:17:35;;;;;;;2.17;0.30;;;;;;;7.08;52.41;99022.44;10449294;28;20620;-83
2023/01/15 16:22:43;;;;;;;4.10;0.60;;;;;;;6.78;52.39;99026.94;10442075;28;20989;-81
2023/01/15 16:27:46;;;;;;;3.27;0.90;;;;;;;6.95;52.76;99030.91;10458837;28;20244;-83
2023/01/15 16:32:49;;;;;;;2.87;0.20;;;;;;;7.07;51.22;99020.78;10489909;28;20267;-84
2023/01/15 16:37:54;;;;;;;2.63;0.60;;;;;;;7.50;51.49;99022.84;10446964;28;20845;-83
2023/01/15 16:43:03;;;;;;;1.80;0.27;;;;;;;6.93;52.53;99025.69;10477712;28;20287;-82
2023/01/15 16:48:29;;;;;;;2.33;0.50;;;;;;;7.05;52.18;99023.09;10488367;28;20336;-80
2023/01/15 16:53:34;;;;;;;3.27;0.20;;;;;;;7.56;50.88;99023.50;10447446;28;20232;-82
2023/01/15 16:58:38;;;;;;;1.50;0.30;;;;;;;7.31;52.11;99012.00;10487510;28;20249;-83
2023/01/15 17:03:41;;;;;;;3.47;0.67;;;;;;;6.45;53.88;99033.97;10478034;28;20222;-83
2023/01/15 17:08:47;;;;;;;2.30;0.83;;;;;;;7.43;50.97;99026.13;10451682;28;20298;-81
2023/01/15 17:13:49;;;;;;;2.90;0.53;;;;;;;6.69;53.90;99030.78;10479492;28;20249;-82
2023/01/15 17:18:53;;;;;;;3.33;0.70;;;;;;;7.46;51.77;99024.66;10483265;28;20224;-83
2023/01/15 17:23:55;;;;;;;1.60;0.40;;;;;;;7.74;51.46;99034.31;10473521;28;20477;-84
2023/01/15 17:28:58;;;;;;;0.90;0.40;;;;;;;6.80;54.18;99040.56;10480850;28;20247;-83
2023/01/15 17:34:02;;;;;;;0.63;0.27;;;;;;;6.65;54.58;99032.59;10472392;28;20243;-85
2023/01/15 17:39:04;;;;;;;1.77;0.60;;;;;;;7.31;52.16;99051.06;10464929;28;20247;-83
2023/01/15 17:44:08;;;;;;;3.43;0.63;;;;;;;7.17;52.25;99050.34;10464793;28;20227;-82
2023/01/15 17:49:10;;;;;;;2.50;0.60;;;;;;;6.99;53.00;99037.50;10466141;28;20307;-84
2023/01/15 18:05:24;;;;;;;2.83;0.30;;;;;;;6.32;54.66;99037.66;10470976;28;20215;-82
2023/01/15 18:10:19;;;;;;;2.30;0.47;;;;;;;6.76;53.47;99034.81;10447705;28;20243;-83
2023/01/15 18:15:22;;;;;;;3.00;0.53;;;;;;;6.85;53.78;99037.63;10461568;28;20219;-85
2023/01/15 18:20:24;;;;;;;0.83;0.40;;;;;;;6.58;54.44;99049.75;10480369;28;20297;-84
2023/01/15 18:25:26;;;;;;;3.17;0.40;;;;;;;6.65;54.67;99043.75;10447659;28;20328;-84
2023/01/15 18:30:29;;;;;;;1.50;0.30;;;;;;;6.59;54.43;99048.63;10470091;28;20269;-83
2023/01/15 18:35:31;;;;;;;1.17;0.50;;;;;;;6.87;53.92;99054.03;10489091;28;20613;-84
2023/01/15 18:40:33;;;;;;;1.27;0.40;;;;;;;7.13;52.83;99057.72;10446753;28;20228;-83
2023/01/15 18:50:57;;;;;;;1.77;0.60;;;;;;;6.57;55.15;99069.59;10468778;28;20254;-83
2023/01/15 18:56:01;;;;;;;1.30;0.40;;;;;;;6.71;54.98;99059.16;10481360;28;20226;-82
2023/01/15 19:01:07;;;;;;;2.07;0.50;;;;;;;7.53;52.87;99070.44;10467210;28;20614;-85
2023/01/15 19:06:12;;;;;;;1.67;0.50;;;;;;;6.77;55.03;99063.50;10460765;28;20284;-83
2023/01/15 19:11:14;;;;;;;2.73;0.23;;;;;;;6.77;55.90;99071.84;10464569;28;20635;-84
2023/01/15 19:21:37;;;;;;;3.47;0.50;;;;;;;6.80;56.82;99062.88;10476490;28;20276;-85
2023/01/15 19:26:40;;;;;;;2.10;0.70;;;;;;;6.67;57.19;99074.91;10473334;28;21580;-84
2023/01/15 19:31:42;;;;;;;3.23;0.80;;;;;;;6.98;56.86;99066.53;10475292;28;20530;-83
2023/01/15 19:36:45;;;;;;;2.03;0.43;;;;;;;7.01;56.26;99057.53;10476605;28;20279;-83
2023/01/15 19:52:36;;;;;;;2.90;0.80;;;;;;;7.02;55.35;99045.22;10482771;28;20677;-83
2023/01/15 19:57:40;;;;;;;1.37;0.43;;;;;;;7.37;55.09;99037.75;10487835;28;20200;-86
2023/01/15 20:02:43;;;;;;;2.53;0.50;;;;;;;7.04;54.86;99032.63;10478244;28;20256;-84
2023/01/15 20:07:46;;;;;;;3.60;0.80;;;;;;;7.41;53.78;99024.81;10471152;28;20269;-84
2023/01/15 20:18:10;;;;;;;4.03;0.70;;;;;;;7.65;53.23;99008.41;10479290;28;20242;-85
2023/01/15 20:23:13;;;;;;;2.17;0.73;;;;;;;7.48;52.73;99000.00;10479221;28;20223;-85
2023/01/15 20:28:15;;;;;;;1.27;0.50;;;;;;;7.45;52.80;98983.97;10481641;28;20234;-84
2023/01/15 20:33:17;;;;;;;2.23;1.37;;;;;;;7.15;52.93;98980.97;10472153;28;20697;-83
2023/01/15 20:38:21;;;;;;;2.00;0.60;;;;;;;7.18;52.37;98970.31;10500790;28;20218;-82
2023/01/15 20:54:05;;;;;;;2.67;0.60;;;;;;;6.72;52.86;98949.34;10503059;28;20256;-83
2023/01/15 20:59:08;;;;;;;3.93;0.90;;;;;;;7.16;51.37;98954.72;10485009;28;20223;-85
2023/01/15 21:04:12;;;;;;;1.80;0.40;;;;;;;7.04;52.06;98940.59;10473117;28;20231;-85
2023/01/15 21:09:15;;;;;;;4.73;0.63;;;;;;;6.62;53.49;98938.50;10467173;28;20620;-83
2023/01/15 21:14:17;;;;;;;2.20;0.30;;;;;;;6.80;54.79;98940.25;10480149;28;20237;-83
2023/01/15 21:19:19;;;;;;;4.47;0.40;;;;;;;6.94;54.81;98935.34;10512872;28;20249;-84
2023/01/15 21:24:22;;;;;;;3.60;0.60;;;;;;;6.43;56.04;98913.69;10481514;28;20196;-84
2023/01/15 21:29:24;;;;;;;5.10;0.77;;;;;;;6.57;55.47;98902.44;10460716;28;20246;-85
2023/01/15 21:34:26;;;;;;;3.23;0.50;;;;;;;6.79;55.50;98899.59;10469664;28;20505;-85
2023/01/15 21:39:29;;;;;;;3.30;0.60;;;;;;;6.59;55.81;98891.78;10478464;28;20579;-82
2023/01/15 21:44:34;;;;;;;4.97;0.73;;;;;;;6.26;56.67;98878.28;10469318;28;20195;-83
2023/01/15 21:49:37;;;;;;;1.87;0.37;;;;;;;6.58;55.87;98870.66;10468882;28;20215;-84
2023/01/15 21:54:40;;;;;;;2.67;0.57;;;;;;;6.21;56.44;98867.28;10482663;28;20187;-83
2023/01/15 21:59:42;;;;;;;1.77;0.37;;;;;;;7.04;55.36;98862.53;10495425;28;20196;-83
2023/01/15 22:04:44;;;;;;;3.50;0.53;;;;;;;6.39;56.98;98855.06;10490520;28;20195;-84
2023/01/15 22:09:47;;;;;;;4.03;1.00;;;;;;;6.37;57.71;98862.91;10461064;28;20215;-84
2023/01/15 22:14:49;;;;;;;1.57;0.80;;;;;;;6.04;59.54;98861.63;10480235;28;20187;-83
2023/01/15 22:19:51;;;;;;;2.53;0.50;;;;;;;5.81;62.18;98851.72;10473324;28;20187;-83
2023/01/15 22:24:54;;;;;;;3.63;0.63;;;;;;;5.81;63.50;98848.94;10453082;28;20192;-85
2023/01/15 22:29:56;;;;;;;3.20;0.43;;;;;;;5.23;66.93;98861.03;10490080;28;20232;-84
2023/01/15 22:34:58;;;;;;;3.33;0.60;;;;;;;5.86;64.34;98848.81;10483777;28;20231;-84
2023/01/15 22:40:00;;;;;;;2.00;0.40;;;;;;;5.76;67.13;98840.75;10490309;28;20191;-85
2023/01/15 22:45:03;;;;;;;4.17;0.47;;;;;;;5.28;67.72;98838.66;10456960;28;20196;-84
2023/01/15 22:50:05;;;;;;;2.93;0.57;;;;;;;5.60;68.07;98806.97;10480291;28;20242;-83
2023/01/15 22:55:08;;;;;;;1.47;0.53;;;;;;;5.28;69.18;98795.00;10482416;28;20669;-82
2023/01/15 23:00:10;;;;;;;4.83;0.50;;;;;;;5.70;68.62;98796.38;10486290;28;20195;-84
2023/01/15 23:05:13;;;;;;;2.30;0.47;;;;;;;5.67;68.57;98780.31;10487728;28;20543;-87
2023/01/15 23:10:15;;;;;;;3.83;0.70;;;;;;;5.60;67.28;98762.47;10471410;28;20222;-83
2023/01/15 23:15:17;;;;;;;3.07;0.60;;;;;;;5.79;66.39;98760.22;10461177;28;20217;-81
2023/01/15 23:20:20;;;;;;;2.80;0.77;;;;;;;5.83;66.89;98749.28;10481560;28;20192;-83
2023/01/15 23:25:22;;;;;;;2.93;0.80;;;;;;;5.91;65.45;98740.13;10459268;28;21748;-86
2023/01/15 23:30:24;;;;;;;2.87;0.67;;;;;;;5.83;65.35;98740.94;10454324;28;20216;-85
2023/01/15 23:35:26;;;;;;;3.43;0.40;;;;;;;5.77;64.85;98725.53;10464226;28;20253;-86
2023/01/15 23:40:29;;;;;;;6.33;1.40;;;;;;;5.92;64.88;98719.50;10459702;28;20203;-84
2023/01/15 23:50:55;;;;;;;2.97;0.47;;;;;;;6.43;63.25;98696.47;10480942;28;20249;-83
2023/01/15 23:55:58;;;;;;;2.20;0.40;;;;;;;6.07;65.18;98699.56;10459125;28;20202;-84
